Time;durP1;ratioP1;P1;durP2;ratioP2;P2;SDS_P1;SDS_P2;PMS_P1;PMS_P2;Temp;Humidity;BMP_temperature;BMP_pressure;BME280_temperature;BME280_humidity;BME280_pressure;Samples;Min_cycle;Max_cycle;Signal;HPM_P1;HPM_P2
2023/02/12 00:00:15;;;;;;;1999.90;999.90;;;6.40;99.90;;;;;;5045289;28;20480;-67
2023/02/12 00:02:43;;;;;;;1999.90;999.90;;;6.40;99.90;;;;;;5045867;28;20448;-67
2023/02/12 00:05:10;;;;;;;1999.90;999.90;;;6.40;99.90;;;;;;5038456;28;20444;-66
2023/02/12 00:07:37;;;;;;;1999.90;999.90;;;6.50;99.90;;;;;;5027055;28;20452;-68
2023/02/12 00:10:04;;;;;;;1999.90;999.90;;;6.50;99.90;;;;;;5027629;28;21298;-67
2023/02/12 00:12:31;;;;;;;1999.90;999.90;;;6.50;99.90;;;;;;5024778;28;20465;-68
2023/02/12 00:14:58;;;;;;;1999.90;999.90;;;6.50;99.90;;;;;;5025972;28;20449;-67
2023/02/12 00:17:25;;;;;;;1999.90;999.90;;;6.50;99.90;;;;;;5026235;28;20445;-64
2023/02/12 00:19:53;;;;;;;1999.90;999.90;;;6.50;99.90;;;;;;5025512;28;20472;-66
2023/02/12 00:22:20;;;;;;;1999.90;999.90;;;6.50;99.90;;;;;;5025943;28;20458;-67
2023/02/12 00:24:47;;;;;;;1999.90;999.90;;;6.40;99.90;;;;;;5025074;28;20460;-67
2023/02/12 00:27:13;;;;;;;1999.90;999.90;;;6.30;99.90;;;;;;5026233;28;20731;-68
2023/02/12 00:29:40;;;;;;;1999.90;999.90;;;6.20;99.90;;;;;;5035357;28;20444;-67
2023/02/12 00:32:07;;;;;;;1999.90;999.90;;;6.20;99.90;;;;;;5045562;28;20460;-68
2023/02/12 00:34:34;;;;;;;1999.90;999.90;;;6.20;99.90;;;;;;5040368;28;20543;-67
2023/02/12 00:37:02;;;;;;;1999.90;999.90;;;6.10;99.90;;;;;;5028865;28;20440;-67
2023/02/12 00:39:29;;;;;;;1999.90;999.90;;;6.10;99.90;;;;;;5028748;28;20441;-67
2023/02/12 00:41:56;;;;;;;1999.90;999.90;;;6.20;99.90;;;;;;5029923;28;20873;-68
2023/02/12 00:44:22;;;;;;;1999.90;999.90;;;6.20;99.90;;;;;;5028598;28;20445;-67
2023/02/12 00:46:49;;;;;;;1999.90;999.90;;;6.20;99.90;;;;;;5030027;28;20810;-67
2023/02/12 00:49:17;;;;;;;1999.90;999.90;;;6.20;99.90;;;;;;5029551;28;20970;-67
2023/02/12 00:51:44;;;;;;;1999.90;999.90;;;6.20;99.90;;;;;;5029052;28;20452;-68
2023/02/12 00:54:12;;;;;;;1999.90;999.90;;;6.20;99.90;;;;;;5028536;28;20451;-66
2023/02/12 00:56:39;;;;;;;1999.90;999.90;;;6.10;99.90;;;;;;5029194;28;20444;-65
2023/02/12 00:59:06;;;;;;;1999.90;999.90;;;6.10;99.90;;;;;;5029834;28;20441;-68
2023/02/12 01:01:33;;;;;;;1999.90;999.90;;;6.20;99.90;;;;;;5024303;28;20854;-67
2023/02/12 01:04:00;;;;;;;1999.90;999.90;;;6.20;99.90;;;;;;5029239;28;20444;-66
2023/02/12 01:06:27;;;;;;;1999.90;999.90;;;6.20;99.90;;;;;;5029242;28;20445;-66
2023/02/12 01:08:54;;;;;;;1999.90;999.90;;;6.30;99.90;;;;;;5029701;28;20445;-67
2023/02/12 01:11:22;;;;;;;1999.90;999.90;;;6.30;99.90;;;;;;5029281;28;20462;-67
2023/02/12 01:13:49;;;;;;;1999.90;999.90;;;6.30;99.90;;;;;;5027775;28;20452;-68
2023/02/12 01:16:18;;;;;;;1999.90;999.90;;;6.30;99.90;;;;;;5029827;28;20805;-67
2023/02/12 01:18:45;;;;;;;1999.90;999.90;;;6.30;99.90;;;;;;5029900;28;21146;-66
2023/02/12 01:21:14;;;;;;;1999.90;999.90;;;6.30;99.90;;;;;;5029570;28;20559;-67
2023/02/12 01:23:41;;;;;;;1999.90;999.90;;;6.40;99.90;;;;;;5008187;28;20932;-67
2023/02/12 01:26:10;;;;;;;1999.90;999.90;;;6.30;99.90;;;;;;5009380;28;20804;-67
2023/02/12 01:28:38;;;;;;;1999.90;999.90;;;6.20;99.90;;;;;;5009502;28;20527;-66
2023/02/12 01:31:09;;;;;;;1999.90;999.90;;;6.30;99.90;;;;;;5009615;28;20452;-69
2023/02/12 01:33:36;;;;;;;1999.90;999.90;;;6.30;99.90;;;;;;5008309;28;20449;-67
2023/02/12 01:36:03;;;;;;;1999.90;999.90;;;6.20;99.90;;;;;;5026750;28;20939;-66
2023/02/12 01:38:29;;;;;;;1999.90;999.90;;;6.20;99.90;;;;;;5028763;28;20445;-69
2023/02/12 01:41:03;;;;;;;1999.90;999.90;;;6.00;99.90;;;;;;5028969;28;20477;-67
2023/02/12 01:43:29;;;;;;;1999.90;999.90;;;6.00;99.90;;;;;;5027448;28;21023;-67
2023/02/12 01:46:00;;;;;;;1999.90;999.90;;;6.00;99.90;;;;;;5029337;28;20437;-66
2023/02/12 01:48:30;;;;;;;1999.90;999.90;;;6.10;99.90;;;;;;5029388;28;20441;-66
2023/02/12 01:50:59;;;;;;;1999.90;999.90;;;6.10;99.90;;;;;;5028735;28;20465;-67
2023/02/12 01:53:31;;;;;;;1999.90;999.90;;;6.10;99.90;;;;;;5041224;28;20448;-67
2023/02/12 01:56:01;;;;;;;1999.90;999.90;;;6.10;99.90;;;;;;5048459;28;20436;-67
2023/02/12 01:58:33;;;;;;;1999.90;999.90;;;6.10;99.90;;;;;;5043560;28;20985;-66
2023/02/12 02:01:04;;;;;;;1999.90;999.90;;;6.10;99.90;;;;;;5028675;28;20484;-66
2023/02/12 02:03:31;;;;;;;1999.90;999.90;;;6.20;99.90;;;;;;5026789;28;20445;-66
2023/02/12 02:06:01;;;;;;;1999.90;999.90;;;6.20;99.90;;;;;;5027992;28;20475;-67
2023/02/12 02:08:28;;;;;;;1999.90;999.90;;;6.30;99.90;;;;;;5028440;28;20433;-66
2023/02/12 02:10:55;;;;;;;1999.90;999.90;;;6.30;99.90;;;;;;5028543;28;20955;-68
2023/02/12 02:16:20;;;;;;;1999.90;999.90;;;6.30;99.90;;;;;;5048304;28;20490;-67
2023/02/12 02:18:53;;;;;;;1999.90;999.90;;;6.30;99.90;;;;;;5030277;28;20903;-67
2023/02/12 02:21:45;;;;;;;1999.90;999.90;;;6.30;99.90;;;;;;5030093;28;21035;-66
2023/02/12 02:24:51;;;;;;;1999.90;999.90;;;6.20;99.90;;;;;;5029047;28;20473;-66
2023/02/12 02:27:24;;;;;;;1999.90;999.90;;;6.20;99.90;;;;;;5030535;28;20448;-68
2023/02/12 02:30:24;;;;;;;1999.90;999.90;;;6.20;99.90;;;;;;5039167;28;20444;-67
2023/02/12 02:33:00;;;;;;;1999.90;999.90;;;6.20;99.90;;;;;;5049311;28;20432;-67
2023/02/12 02:35:32;;;;;;;1999.90;999.90;;;6.20;99.90;;;;;;5050071;28;21240;-67
2023/02/12 02:38:09;;;;;;;1999.90;999.90;;;6.20;99.90;;;;;;5050478;28;20797;-67
2023/02/12 02:40:42;;;;;;;1999.90;999.90;;;6.20;99.90;;;;;;5049955;28;20577;-66
2023/02/12 02:43:16;;;;;;;1999.90;999.90;;;6.20;99.90;;;;;;5049061;28;20428;-67
2023/02/12 02:45:48;;;;;;;1999.90;999.90;;;6.20;99.90;;;;;;5048535;28;20444;-68
2023/02/12 02:48:19;;;;;;;1999.90;999.90;;;6.20;99.90;;;;;;5049964;28;20795;-66
2023/02/12 02:50:49;;;;;;;1999.90;999.90;;;6.10;99.90;;;;;;5050358;28;20459;-65
2023/02/12 02:53:19;;;;;;;1999.90;999.90;;;6.10;99.90;;;;;;5048537;28;20930;-66
2023/02/12 02:55:50;;;;;;;1999.90;999.90;;;6.10;99.90;;;;;;5049898;28;20432;-67
2023/02/12 02:58:23;;;;;;;1999.90;999.90;;;6.20;99.90;;;;;;5049426;28;20444;-67
2023/02/12 03:00:56;;;;;;;1999.90;999.90;;;6.20;99.90;;;;;;5032142;28;20464;-68
2023/02/12 03:03:28;;;;;;;1999.90;999.90;;;6.20;99.90;;;;;;5028378;28;20437;-67
2023/02/12 03:05:59;;;;;;;1999.90;999.90;;;6.20;99.90;;;;;;5029815;28;20528;-66
2023/02/12 03:08:33;;;;;;;1999.90;999.90;;;6.20;99.90;;;;;;5029863;28;20448;-66
2023/02/12 03:11:04;;;;;;;1999.90;999.90;;;6.20;99.90;;;;;;5033420;28;20551;-67
2023/02/12 03:13:37;;;;;;;1999.90;999.90;;;6.20;99.90;;;;;;5048540;28;20447;-66
2023/02/12 03:16:09;;;;;;;1999.90;999.90;;;6.20;99.90;;;;;;5049762;28;20436;-65
2023/02/12 03:18:42;;;;;;;1999.90;999.90;;;6.20;99.90;;;;;;5049785;28;20432;-66
2023/02/12 03:21:13;;;;;;;1999.90;999.90;;;6.20;99.90;;;;;;5049779;28;20452;-66
2023/02/12 03:23:43;;;;;;;1999.90;999.90;;;6.20;99.90;;;;;;5047953;28;20446;-65
2023/02/12 03:26:17;;;;;;;1999.90;999.90;;;6.20;99.90;;;;;;5036863;28;20441;-67
2023/02/12 03:28:44;;;;;;;1999.90;999.90;;;6.20;99.90;;;;;;5029548;28;20880;-66
2023/02/12 03:31:24;;;;;;;1999.90;999.90;;;6.20;99.90;;;;;;5029252;28;20468;-67
2023/02/12 03:34:00;;;;;;;1999.90;999.90;;;6.20;99.90;;;;;;5029022;28;20437;-67
2023/02/12 03:36:35;;;;;;;1999.90;999.90;;;6.20;99.90;;;;;;5028475;28;20429;-67
2023/02/12 03:39:12;;;;;;;1999.90;999.90;;;6.30;99.90;;;;;;5028867;28;20445;-67
2023/02/12 03:41:44;;;;;;;1999.90;999.90;;;6.30;99.90;;;;;;5032883;28;20472;-67
2023/02/12 03:44:18;;;;;;;1999.90;999.90;;;6.30;99.90;;;;;;5047470;28;20802;-67
2023/02/12 03:46:57;;;;;;;1999.90;999.90;;;6.20;99.90;;;;;;5048646;28;20435;-68
2023/02/12 03:49:29;;;;;;;1999.90;999.90;;;6.10;99.90;;;;;;5048267;28;20440;-66
2023/02/12 03:51:57;;;;;;;1999.90;999.90;;;6.00;99.90;;;;;;5048288;28;21128;-67
2023/02/12 03:54:24;;;;;;;1999.90;999.90;;;5.90;99.90;;;;;;5047049;28;20523;-66
2023/02/12 03:56:55;;;;;;;1999.90;999.90;;;5.90;99.90;;;;;;5048364;28;20464;-66
2023/02/12 03:59:23;;;;;;;1999.90;999.90;;;5.90;99.90;;;;;;5034303;28;20445;-67
2023/02/12 04:01:53;;;;;;;1999.90;999.90;;;5.90;99.90;;;;;;5028378;28;20484;-67
2023/02/12 04:04:21;;;;;;;1999.90;999.90;;;5.90;99.90;;;;;;5027289;28;20793;-67
2023/02/12 04:06:50;;;;;;;1999.90;999.90;;;5.90;99.90;;;;;;5027998;28;20445;-66
2023/02/12 04:09:17;;;;;;;1999.90;999.90;;;5.90;99.90;;;;;;5028629;28;21085;-65
2023/02/12 04:11:57;;;;;;;1999.90;999.90;;;5.80;99.90;;;;;;5031397;28;20460;-67
2023/02/12 04:14:31;;;;;;;1999.90;999.90;;;5.80;99.90;;;;;;5030289;28;20448;-67
2023/02/12 04:17:05;;;;;;;1999.90;999.90;;;5.60;99.90;;;;;;5031498;28;20448;-67
2023/02/12 04:19:40;;;;;;;1999.90;999.90;;;5.60;99.90;;;;;;5031644;28;20452;-66
2023/02/12 04:22:19;;;;;;;1999.90;999.90;;;5.70;99.90;;;;;;5031286;28;20484;-66
2023/02/12 04:24:57;;;;;;;1999.90;999.90;;;5.70;99.90;;;;;;5030655;28;20437;-65
2023/02/12 04:27:29;;;;;;;1999.90;999.90;;;5.70;99.90;;;;;;5031526;28;20436;-67
2023/02/12 04:30:05;;;;;;;1999.90;999.90;;;5.80;99.90;;;;;;5031367;28;20484;-67
2023/02/12 04:32:38;;;;;;;1999.90;999.90;;;5.70;99.90;;;;;;5030573;28;20444;-67
2023/02/12 04:35:11;;;;;;;1999.90;999.90;;;5.70;99.90;;;;;;4994923;28;1062686;-66
2023/02/12 04:37:41;;;;;;;1999.90;999.90;;;5.70;99.90;;;;;;5032391;28;20202;-65
2023/02/12 04:40:13;;;;;;;1999.90;999.90;;;5.60;99.90;;;;;;5032287;28;20444;-67
2023/02/12 04:42:44;;;;;;;1999.90;999.90;;;5.60;99.90;;;;;;5031258;28;20483;-66
2023/02/12 04:45:12;;;;;;;1999.90;999.90;;;5.60;99.90;;;;;;5032341;28;20444;-67
2023/02/12 04:47:40;;;;;;;1999.90;999.90;;;5.60;99.90;;;;;;5051708;28;20452;-67
2023/02/12 04:50:08;;;;;;;1999.90;999.90;;;5.60;99.90;;;;;;5047220;28;20491;-67
2023/02/12 04:52:35;;;;;;;1999.90;999.90;;;5.60;99.90;;;;;;5031367;28;20444;-67
2023/02/12 04:55:02;;;;;;;1999.90;999.90;;;5.70;99.90;;;;;;5032161;28;20472;-68
2023/02/12 04:57:29;;;;;;;1999.90;999.90;;;5.60;99.90;;;;;;5032435;28;20445;-65
2023/02/12 04:59:56;;;;;;;1999.90;999.90;;;5.60;99.90;;;;;;5032371;28;20445;-66
2023/02/12 05:02:23;;;;;;;1999.90;999.90;;;5.70;99.90;;;;;;5032308;28;20480;-67
2023/02/12 05:04:51;;;;;;;1999.90;999.90;;;5.70;99.90;;;;;;5031976;28;20445;-67
2023/02/12 05:07:17;;;;;;;1999.90;999.90;;;5.70;99.90;;;;;;5031829;28;20934;-67
2023/02/12 05:09:44;;;;;;;1999.90;999.90;;;5.70;99.90;;;;;;5032427;28;20441;-66
2023/02/12 05:12:11;;;;;;;1999.90;999.90;;;5.70;99.90;;;;;;5031594;28;20484;-67
2023/02/12 05:14:38;;;;;;;1999.90;999.90;;;5.80;99.90;;;;;;5031088;28;20965;-65
2023/02/12 05:17:05;;;;;;;1999.90;999.90;;;5.80;99.90;;;;;;5032421;28;20453;-66
2023/02/12 05:19:31;;;;;;;1999.90;999.90;;;5.80;99.90;;;;;;5033101;28;20502;-67
2023/02/12 05:22:00;;;;;;;1999.90;999.90;;;5.80;99.90;;;;;;5031876;28;20480;-67
2023/02/12 05:24:26;;;;;;;1999.90;999.90;;;5.80;99.90;;;;;;5032007;28;20441;-67
2023/02/12 05:26:53;;;;;;;1999.90;999.90;;;5.80;99.90;;;;;;5032500;28;20439;-66
2023/02/12 05:29:20;;;;;;;1999.90;999.90;;;5.80;99.90;;;;;;5031978;28;20440;-66
2023/02/12 05:31:47;;;;;;;1999.90;999.90;;;5.80;99.90;;;;;;5031758;28;20469;-67
2023/02/12 05:34:14;;;;;;;1999.90;999.90;;;5.80;99.90;;;;;;5030473;28;20440;-66
2023/02/12 05:36:41;;;;;;;1999.90;999.90;;;5.80;99.90;;;;;;5032848;28;20837;-67
2023/02/12 05:39:11;;;;;;;1999.90;999.90;;;5.90;99.90;;;;;;5031533;28;20441;-67
2023/02/12 05:41:37;;;;;;;1999.90;999.90;;;5.90;99.90;;;;;;5031297;28;20465;-66
2023/02/12 05:44:05;;;;;;;1999.90;999.90;;;5.90;99.90;;;;;;5030129;28;20453;-68
2023/02/12 05:46:32;;;;;;;1999.90;999.90;;;5.90;99.90;;;;;;5031393;28;20840;-67
2023/02/12 05:48:59;;;;;;;1999.90;999.90;;;5.90;99.90;;;;;;5031247;28;20447;-67
2023/02/12 05:51:27;;;;;;;1999.90;999.90;;;5.80;99.90;;;;;;5031635;28;20464;-68
2023/02/12 05:53:58;;;;;;;1999.90;999.90;;;5.80;99.90;;;;;;5031148;28;20452;-67
2023/02/12 05:56:29;;;;;;;1999.90;999.90;;;5.80;99.90;;;;;;5031031;28;20436;-66
2023/02/12 05:58:57;;;;;;;1999.90;999.90;;;5.80;99.90;;;;;;5039124;28;20448;-67
2023/02/12 06:01:27;;;;;;;1999.90;999.90;;;5.70;99.90;;;;;;5050855;28;20460;-66
2023/02/12 06:03:53;;;;;;;1999.90;999.90;;;5.70;99.90;;;;;;5049624;28;20993;-67
2023/02/12 06:06:20;;;;;;;1999.90;999.90;;;5.70;99.90;;;;;;5050650;28;20448;-67
2023/02/12 06:08:48;;;;;;;1999.90;999.90;;;5.80;99.90;;;;;;5050660;28;20440;-67
2023/02/12 06:11:16;;;;;;;1999.90;999.90;;;5.80;99.90;;;;;;5050786;28;20495;-67
2023/02/12 06:13:44;;;;;;;1999.90;999.90;;;5.90;99.90;;;;;;5036379;28;20970;-68
2023/02/12 06:16:18;;;;;;;1999.90;999.90;;;5.80;99.90;;;;;;5030778;28;20949;-67
2023/02/12 06:18:52;;;;;;;1999.90;999.90;;;5.80;99.90;;;;;;5031021;28;20444;-67
2023/02/12 06:21:24;;;;;;;1999.90;999.90;;;5.80;99.90;;;;;;5031303;28;20472;-68
2023/02/12 06:23:53;;;;;;;1999.90;999.90;;;6.00;99.90;;;;;;5029568;28;20480;-66
2023/02/12 06:26:26;;;;;;;1999.90;999.90;;;5.90;99.90;;;;;;5030960;28;20445;-66
2023/02/12 06:28:54;;;;;;;1999.90;999.90;;;6.00;99.90;;;;;;5031231;28;20445;-67
2023/02/12 06:31:23;;;;;;;1999.90;999.90;;;5.80;99.90;;;;;;5030022;28;20826;-67
2023/02/12 06:33:51;;;;;;;1999.90;999.90;;;5.70;99.90;;;;;;5028553;28;20959;-66
2023/02/12 06:36:18;;;;;;;1999.90;999.90;;;5.70;99.90;;;;;;5030283;28;20454;-67
2023/02/12 06:38:45;;;;;;;1999.90;999.90;;;5.70;99.90;;;;;;5030179;28;20918;-67
2023/02/12 06:41:12;;;;;;;1999.90;999.90;;;5.80;99.90;;;;;;5030490;28;20465;-67
2023/02/12 06:43:39;;;;;;;1999.90;999.90;;;5.90;99.90;;;;;;5029061;28;20475;-67
2023/02/12 06:46:08;;;;;;;1999.90;999.90;;;5.90;99.90;;;;;;5030227;28;20968;-66
2023/02/12 06:48:35;;;;;;;1999.90;999.90;;;5.90;99.90;;;;;;5030341;28;20456;-67
2023/02/12 06:51:06;;;;;;;1999.90;999.90;;;5.80;99.90;;;;;;5030195;28;20543;-66
2023/02/12 06:53:34;;;;;;;1999.90;999.90;;;5.80;99.90;;;;;;5029389;28;20433;-67
2023/02/12 06:56:01;;;;;;;1999.90;999.90;;;5.70;99.90;;;;;;5030045;28;20514;-66
2023/02/12 06:58:28;;;;;;;1999.90;999.90;;;5.70;99.90;;;;;;5042214;28;20452;-67
2023/02/12 07:00:55;;;;;;;1999.90;999.90;;;5.80;99.90;;;;;;5050255;28;20467;-67
2023/02/12 07:03:24;;;;;;;1999.90;999.90;;;5.80;99.90;;;;;;5048734;28;20480;-67
2023/02/12 07:05:50;;;;;;;1999.90;999.90;;;5.80;99.90;;;;;;5050083;28;20466;-66
2023/02/12 07:08:17;;;;;;;1999.90;999.90;;;5.90;99.90;;;;;;5049877;28;20446;-67
2023/02/12 07:10:49;;;;;;;1999.90;999.90;;;5.80;99.90;;;;;;5050277;28;20467;-67
2023/02/12 07:13:16;;;;;;;1999.90;999.90;;;5.80;99.90;;;;;;5030724;28;20449;-68
2023/02/12 07:15:43;;;;;;;1999.90;999.90;;;5.80;99.90;;;;;;5030189;28;20436;-67
2023/02/12 07:18:10;;;;;;;1999.90;999.90;;;5.90;99.90;;;;;;5029750;28;20440;-67
2023/02/12 07:20:38;;;;;;;1999.90;999.90;;;6.00;99.90;;;;;;5030454;28;20473;-68
2023/02/12 07:23:05;;;;;;;1999.90;999.90;;;6.10;99.90;;;;;;5029821;28;20492;-69
2023/02/12 07:25:31;;;;;;;1999.90;999.90;;;6.20;99.90;;;;;;5030522;28;20433;-66
2023/02/12 07:27:58;;;;;;;1999.90;999.90;;;6.20;99.90;;;;;;5031319;28;20460;-66
2023/02/12 07:30:25;;;;;;;1999.90;999.90;;;6.40;99.90;;;;;;5031144;28;20448;-68
2023/02/12 07:32:51;;;;;;;1999.90;999.90;;;6.40;99.90;;;;;;5029243;28;20437;-67
2023/02/12 07:35:18;;;;;;;1999.90;999.90;;;6.50;99.90;;;;;;5029751;28;20445;-67
2023/02/12 07:37:46;;;;;;;1999.90;999.90;;;6.60;99.90;;;;;;5029377;28;20962;-68
2023/02/12 07:40:14;;;;;;;1999.90;999.90;;;6.60;99.90;;;;;;5029556;28;20440;-68
2023/02/12 07:42:40;;;;;;;1999.90;999.90;;;6.70;99.90;;;;;;5028365;28;20481;-67
2023/02/12 07:45:08;;;;;;;1999.90;999.90;;;6.70;99.90;;;;;;5039687;28;21187;-67
2023/02/12 07:47:37;;;;;;;1999.90;999.90;;;6.80;99.90;;;;;;5049250;28;20440;-67
2023/02/12 07:50:06;;;;;;;1999.90;999.90;;;6.90;99.90;;;;;;5049318;28;20843;-68
2023/02/12 07:52:32;;;;;;;1999.90;999.90;;;7.00;99.90;;;;;;5048569;28;20547;-67
2023/02/12 07:55:00;;;;;;;1999.90;999.90;;;7.20;99.90;;;;;;5049182;28;20435;-68
2023/02/12 07:57:27;;;;;;;1999.90;999.90;;;7.20;99.90;;;;;;5048794;28;20447;-67
2023/02/12 07:59:54;;;;;;;1999.90;999.90;;;7.20;99.90;;;;;;5032644;28;20449;-68
2023/02/12 08:02:24;;;;;;;1999.90;999.90;;;7.10;99.90;;;;;;5028764;28;20464;-67
2023/02/12 08:04:55;;;;;;;1999.90;999.90;;;7.30;99.90;;;;;;5028999;28;20804;-68
2023/02/12 08:07:21;;;;;;;1999.90;999.90;;;7.30;99.90;;;;;;5029081;28;20444;-66
2023/02/12 08:09:48;;;;;;;1999.90;999.90;;;7.50;99.90;;;;;;5028856;28;20441;-67
2023/02/12 08:12:17;;;;;;;1999.90;999.90;;;7.60;99.90;;;;;;5028908;28;20460;-66
2023/02/12 08:14:44;;;;;;;1999.90;999.90;;;7.70;99.90;;;;;;5048051;28;20494;-70
2023/02/12 08:17:11;;;;;;;1999.90;999.90;;;7.80;99.90;;;;;;5049134;28;20444;-69
2023/02/12 08:19:38;;;;;;;1999.90;999.90;;;8.00;99.90;;;;;;5048911;28;20455;-70
2023/02/12 08:22:05;;;;;;;1999.90;999.90;;;8.10;99.90;;;;;;5048640;28;20452;-68
2023/02/12 08:24:32;;;;;;;1999.90;999.90;;;8.20;99.90;;;;;;5047828;28;20599;-68
2023/02/12 08:26:59;;;;;;;1999.90;999.90;;;8.10;99.90;;;;;;5048607;28;20440;-68
2023/02/12 08:29:29;;;;;;;1999.90;999.90;;;8.00;99.90;;;;;;5033418;28;20473;-68
2023/02/12 08:31:57;;;;;;;1999.90;999.90;;;8.10;99.90;;;;;;5027349;28;20564;-67
2023/02/12 08:34:26;;;;;;;1999.90;999.90;;;8.20;99.90;;;;;;5026326;28;20449;-68
2023/02/12 08:36:54;;;;;;;1999.90;999.90;;;8.20;99.90;;;;;;5027768;28;20468;-68
2023/02/12 08:39:21;;;;;;;1999.90;999.90;;;8.30;99.90;;;;;;5027000;28;20447;-68
2023/02/12 08:41:48;;;;;;;1999.90;999.90;;;8.20;99.90;;;;;;5027243;28;20473;-68
2023/02/12 08:44:16;;;;;;;1999.90;999.90;;;8.10;99.90;;;;;;5026239;28;20484;-67
2023/02/12 08:46:46;;;;;;;1999.90;999.90;;;8.10;99.90;;;;;;5036746;28;20450;-67
2023/02/12 08:49:16;;;;;;;1999.90;999.90;;;8.30;99.90;;;;;;5048449;28;20448;-68
2023/02/12 08:51:44;;;;;;;1999.90;999.90;;;8.40;99.90;;;;;;5048152;28;20476;-68
2023/02/12 08:54:12;;;;;;;1999.90;999.90;;;8.50;99.90;;;;;;5047174;28;20442;-68
2023/02/12 08:56:39;;;;;;;1999.90;999.90;;;8.70;99.90;;;;;;5050958;28;20457;-68
2023/02/12 08:59:08;;;;;;;1999.90;999.90;;;8.90;99.90;;;;;;5034662;28;20455;-67
2023/02/12 09:01:38;;;;;;;1999.90;999.90;;;8.90;99.90;;;;;;5032261;28;20461;-67
2023/02/12 09:04:06;;;;;;;1999.90;999.90;;;9.00;99.90;;;;;;5031801;28;20476;-67
2023/02/12 09:06:34;;;;;;;1999.90;999.90;;;9.00;99.90;;;;;;5032083;28;20927;-67
2023/02/12 09:09:01;;;;;;;1999.90;999.90;;;9.10;99.90;;;;;;5032118;28;20437;-66
2023/02/12 09:11:30;;;;;;;1999.90;999.90;;;9.30;99.90;;;;;;5032110;28;20469;-67
2023/02/12 09:13:59;;;;;;;1999.90;999.90;;;9.30;99.90;;;;;;5030830;28;21047;-67
2023/02/12 09:16:26;;;;;;;1999.90;999.90;;;9.30;99.90;;;;;;5031899;28;20447;-68
2023/02/12 09:18:53;;;;;;;1999.90;999.90;;;9.40;99.90;;;;;;5032580;28;20444;-66
2023/02/12 09:21:22;;;;;;;1999.90;999.90;;;9.20;99.90;;;;;;5031995;28;20464;-66
2023/02/12 09:23:49;;;;;;;1999.90;999.90;;;9.10;99.90;;;;;;5030585;28;20479;-66
2023/02/12 09:26:19;;;;;;;1999.90;999.90;;;8.80;99.90;;;;;;5031644;28;20524;-69
2023/02/12 09:28:48;;;;;;;1999.90;999.90;;;8.80;99.90;;;;;;5031481;28;20441;-68
2023/02/12 09:31:17;;;;;;;1999.90;999.90;;;8.80;99.90;;;;;;5032152;28;20496;-67
2023/02/12 09:33:44;;;;;;;1999.90;999.90;;;8.80;99.90;;;;;;5030248;28;20437;-68
2023/02/12 09:36:14;;;;;;;1999.90;999.90;;;9.00;99.90;;;;;;5031606;28;20475;-66
2023/02/12 09:38:43;;;;;;;1999.90;999.90;;;8.90;99.90;;;;;;5031314;28;20448;-66
2023/02/12 09:41:24;;;;;;;1999.90;999.90;;;9.00;99.90;;;;;;5031536;28;20461;-67
2023/02/12 09:43:56;;;;;;;1999.90;999.90;;;9.40;99.90;;;;;;5029753;28;20491;-67
2023/02/12 09:46:30;;;;;;;1999.90;999.90;;;9.60;99.90;;;;;;5024865;28;20433;-69
2023/02/12 09:49:07;;;;;;;1999.90;999.90;;;9.80;99.90;;;;;;5029371;28;20449;-68
2023/02/12 09:51:34;;;;;;;1999.90;999.90;;;10.00;99.90;;;;;;5028787;28;20460;-67
2023/02/12 09:54:06;;;;;;;1999.90;999.90;;;10.20;99.90;;;;;;5030894;28;20456;-67
2023/02/12 09:56:35;;;;;;;1999.90;999.90;;;10.10;99.90;;;;;;5030448;28;20437;-67
2023/02/12 09:59:06;;;;;;;1999.90;999.90;;;10.10;99.90;;;;;;5030356;28;20449;-68
2023/02/12 10:01:33;;;;;;;1999.90;999.90;;;10.40;99.90;;;;;;5030410;28;20967;-68
2023/02/12 10:04:00;;;;;;;1999.90;999.90;;;10.40;99.90;;;;;;5028659;28;20469;-68
2023/02/12 10:06:29;;;;;;;1999.90;999.90;;;10.60;99.90;;;;;;5029974;28;20445;-66
2023/02/12 10:09:06;;;;;;;1999.90;999.90;;;10.70;99.90;;;;;;5028592;28;20989;-68
2023/02/12 10:11:52;;;;;;;1999.90;999.90;;;10.80;99.90;;;;;;5030726;28;20475;-67
2023/02/12 10:14:56;;;;;;;1999.90;999.90;;;10.70;99.90;;;;;;5032526;28;20441;-67
2023/02/12 10:17:35;;;;;;;1999.90;999.90;;;10.70;99.90;;;;;;5030390;28;20444;-67
2023/02/12 10:20:35;;;;;;;1999.90;999.90;;;10.50;99.90;;;;;;5030327;28;20459;-66
2023/02/12 10:23:28;;;;;;;1999.90;999.90;;;10.60;99.90;;;;;;5028876;28;20433;-68
2023/02/12 10:25:58;;;;;;;1999.90;999.90;;;10.90;99.90;;;;;;5029172;28;20460;-68
2023/02/12 10:28:27;;;;;;;1999.90;999.90;;;11.10;99.90;;;;;;5028674;28;20445;-66
2023/02/12 10:30:57;;;;;;;1999.90;999.90;;;11.20;99.90;;;;;;5032927;28;20461;-67
2023/02/12 10:33:29;;;;;;;1999.90;999.90;;;11.40;99.90;;;;;;5024020;28;20461;-67
2023/02/12 10:36:03;;;;;;;1999.90;999.90;;;11.70;99.90;;;;;;5029195;28;20445;-66
2023/02/12 10:38:35;;;;;;;1999.90;999.90;;;11.50;99.90;;;;;;5022885;28;20555;-67
2023/02/12 10:41:03;;;;;;;1999.90;999.90;;;11.30;99.90;;;;;;5027487;28;20469;-67
2023/02/12 10:43:30;;;;;;;1999.90;999.90;;;11.20;99.90;;;;;;5029339;28;20484;-66
2023/02/12 10:45:58;;;;;;;1999.90;999.90;;;11.00;99.90;;;;;;5034567;28;20444;-66
2023/02/12 10:48:30;;;;;;;1999.90;999.90;;;11.30;99.90;;;;;;5031461;28;20445;-67
2023/02/12 10:51:25;;;;;;;1999.90;999.90;;;11.60;99.90;;;;;;5027528;28;20456;-66
2023/02/12 10:53:52;;;;;;;1999.90;999.90;;;11.80;99.90;;;;;;5025528;28;20436;-67
2023/02/12 10:56:23;;;;;;;1999.90;999.90;;;12.00;99.90;;;;;;5026866;28;20826;-69
2023/02/12 10:58:55;;;;;;;1999.90;999.90;;;12.30;99.90;;;;;;5029634;28;20487;-67
2023/02/12 11:01:27;;;;;;;1999.90;999.90;;;12.40;99.90;;;;;;5042225;28;21020;-68
2023/02/12 11:03:54;;;;;;;1999.90;999.90;;;12.50;99.90;;;;;;5027708;28;22034;-67
2023/02/12 11:06:23;;;;;;;1999.90;999.90;;;12.30;99.90;;;;;;5028882;28;20452;-68
2023/02/12 11:08:50;;;;;;;1999.90;999.90;;;12.20;99.90;;;;;;5024604;28;20461;-66
2023/02/12 11:11:25;;;;;;;1999.90;999.90;;;12.10;99.90;;;;;;5027786;28;20463;-69
2023/02/12 11:13:58;;;;;;;1999.90;999.90;;;12.20;99.90;;;;;;5024332;28;20495;-66
2023/02/12 11:16:30;;;;;;;1999.90;999.90;;;12.20;99.90;;;;;;5030953;28;20456;-69
2023/02/12 11:19:03;;;;;;;1999.90;999.90;;;12.30;99.90;;;;;;5026844;28;20447;-69
2023/02/12 11:21:30;;;;;;;1999.90;999.90;;;12.40;99.90;;;;;;5030211;28;20465;-66
2023/02/12 11:23:57;;;;;;;1999.90;999.90;;;12.50;99.90;;;;;;5024444;28;20484;-67
2023/02/12 11:26:28;;;;;;;1999.90;999.90;;;12.40;99.90;;;;;;5027087;28;20433;-67
2023/02/12 11:28:56;;;;;;;1999.90;999.90;;;12.50;99.90;;;;;;5026993;28;21017;-67
2023/02/12 11:31:24;;;;;;;1999.90;999.90;;;12.60;99.90;;;;;;5026876;28;20681;-66
2023/02/12 11:34:09;;;;;;;1999.90;999.90;;;12.60;99.90;;;;;;5028185;28;20480;-68
2023/02/12 11:36:37;;;;;;;1999.90;999.90;;;12.60;99.90;;;;;;5025457;28;20433;-67
2023/02/12 11:39:07;;;;;;;1999.90;999.90;;;12.70;99.90;;;;;;5027956;28;20473;-67
2023/02/12 11:41:37;;;;;;;1999.90;999.90;;;13.00;99.90;;;;;;5028157;28;21014;-69
2023/02/12 11:44:11;;;;;;;1999.90;999.90;;;13.20;99.90;;;;;;5030294;28;20468;-69
2023/02/12 11:46:38;;;;;;;1999.90;999.90;;;13.20;99.90;;;;;;5027535;28;20452;-67
2023/02/12 11:49:08;;;;;;;1999.90;999.90;;;12.90;99.90;;;;;;5025781;28;20519;-66
2023/02/12 11:51:37;;;;;;;1999.90;999.90;;;12.70;99.90;;;;;;5037837;28;20834;-69
2023/02/12 11:54:06;;;;;;;1999.90;999.90;;;12.80;99.90;;;;;;5041070;28;20809;-69
2023/02/12 11:56:46;;;;;;;1999.90;999.90;;;12.90;99.90;;;;;;5032220;28;20543;-67
2023/02/12 11:59:27;;;;;;;1999.90;999.90;;;13.10;99.90;;;;;;5039264;28;20547;-68
2023/02/12 12:01:56;;;;;;;1999.90;999.90;;;13.30;99.90;;;;;;5028241;28;20479;-68
2023/02/12 12:04:27;;;;;;;1999.90;999.90;;;13.10;99.90;;;;;;5025742;28;20480;-69
2023/02/12 12:06:59;;;;;;;1999.90;999.90;;;13.00;99.90;;;;;;5025418;28;21120;-68
2023/02/12 12:09:33;;;;;;;1999.90;999.90;;;13.20;99.90;;;;;;5024464;28;20911;-69
2023/02/12 12:12:10;;;;;;;1999.90;999.90;;;13.10;99.90;;;;;;5027684;28;21152;-68
2023/02/12 12:20:17;;;;;;;1999.90;999.90;;;13.30;99.90;;;;;;5025683;28;20488;-69
2023/02/12 12:22:50;;;;;;;1999.90;999.90;;;13.50;99.90;;;;;;5025620;28;20531;-68
2023/02/12 12:25:23;;;;;;;1999.90;999.90;;;13.50;99.90;;;;;;5029626;28;21135;-68
2023/02/12 12:28:08;;;;;;;1999.90;999.90;;;13.70;99.90;;;;;;5025977;28;20452;-70